sensor_id;sensor_type;location;lat;lon;timestamp;temperature;humidity
73568;SHT30;61847;54.994;73.310;2022-08-19T00:01:46;11.02;69.36
73568;SHT30;61847;54.994;73.310;2022-08-19T00:04:18;11.01;69.65
73568;SHT30;61847;54.994;73.310;2022-08-19T00:06:46;11.01;69.65
73568;SHT30;61847;54.994;73.310;2022-08-19T00:09:17;10.96;69.97
73568;SHT30;61847;54.994;73.310;2022-08-19T00:11:45;10.91;70.06
73568;SHT30;61847;54.994;73.310;2022-08-19T00:14:13;10.89;70.17
73568;SHT30;61847;54.994;73.310;2022-08-19T00:16:43;10.91;70.14
73568;SHT30;61847;54.994;73.310;2022-08-19T00:19:10;10.93;70.07
73568;SHT30;61847;54.994;73.310;2022-08-19T00:21:36;10.89;70.25
73568;SHT30;61847;54.994;73.310;2022-08-19T00:24:09;10.92;70.17
73568;SHT30;61847;54.994;73.310;2022-08-19T00:26:36;10.96;70.06
73568;SHT30;61847;54.994;73.310;2022-08-19T00:29:04;10.95;70.21
73568;SHT30;61847;54.994;73.310;2022-08-19T00:31:31;10.98;70.23
73568;SHT30;61847;54.994;73.310;2022-08-19T00:33:58;10.99;70.14
73568;SHT30;61847;54.994;73.310;2022-08-19T00:36:25;11.05;69.98
73568;SHT30;61847;54.994;73.310;2022-08-19T00:38:51;11.02;70.09
73568;SHT30;61847;54.994;73.310;2022-08-19T00:41:29;11.03;70.07
73568;SHT30;61847;54.994;73.310;2022-08-19T00:46:28;11.08;70.04
73568;SHT30;61847;54.994;73.310;2022-08-19T00:48:56;11.06;70.02
73568;SHT30;61847;54.994;73.310;2022-08-19T00:51:25;11.12;69.91
73568;SHT30;61847;54.994;73.310;2022-08-19T00:53:58;11.11;69.93
73568;SHT30;61847;54.994;73.310;2022-08-19T00:56:27;11.12;69.98
73568;SHT30;61847;54.994;73.310;2022-08-19T00:59:04;11.09;70.08
73568;SHT30;61847;54.994;73.310;2022-08-19T01:01:42;11.13;70.11
73568;SHT30;61847;54.994;73.310;2022-08-19T01:04:09;11.18;69.89
73568;SHT30;61847;54.994;73.310;2022-08-19T01:06:41;11.15;69.91
73568;SHT30;61847;54.994;73.310;2022-08-19T01:09:17;11.13;69.90
73568;SHT30;61847;54.994;73.310;2022-08-19T01:11:44;11.12;69.83
73568;SHT30;61847;54.994;73.310;2022-08-19T01:14:11;11.15;69.98
73568;SHT30;61847;54.994;73.310;2022-08-19T01:16:43;11.20;69.80
73568;SHT30;61847;54.994;73.310;2022-08-19T01:19:18;11.19;69.69
73568;SHT30;61847;54.994;73.310;2022-08-19T01:22:15;11.16;69.87
73568;SHT30;61847;54.994;73.310;2022-08-19T01:24:37;11.20;69.83
73568;SHT30;61847;54.994;73.310;2022-08-19T01:27:05;11.22;69.82
73568;SHT30;61847;54.994;73.310;2022-08-19T01:29:32;11.23;69.67
73568;SHT30;61847;54.994;73.310;2022-08-19T01:31:58;11.24;69.67
73568;SHT30;61847;54.994;73.310;2022-08-19T01:34:25;11.22;69.85
73568;SHT30;61847;54.994;73.310;2022-08-19T01:36:52;11.20;69.93
73568;SHT30;61847;54.994;73.310;2022-08-19T01:39:22;11.26;70.06
73568;SHT30;61847;54.994;73.310;2022-08-19T01:41:49;11.27;70.91
73568;SHT30;61847;54.994;73.310;2022-08-19T01:44:16;11.29;70.87
73568;SHT30;61847;54.994;73.310;2022-08-19T01:46:50;11.26;70.59
73568;SHT30;61847;54.994;73.310;2022-08-19T01:49:23;11.26;70.50
73568;SHT30;61847;54.994;73.310;2022-08-19T01:51:50;11.23;71.08
73568;SHT30;61847;54.994;73.310;2022-08-19T01:54:18;11.33;71.04
73568;SHT30;61847;54.994;73.310;2022-08-19T01:56:44;11.29;71.17
73568;SHT30;61847;54.994;73.310;2022-08-19T01:59:14;11.33;70.46
73568;SHT30;61847;54.994;73.310;2022-08-19T02:01:42;11.33;70.23
73568;SHT30;61847;54.994;73.310;2022-08-19T02:04:08;11.29;70.08
73568;SHT30;61847;54.994;73.310;2022-08-19T02:06:34;11.30;70.17
73568;SHT30;61847;54.994;73.310;2022-08-19T02:09:03;11.30;70.10
73568;SHT30;61847;54.994;73.310;2022-08-19T02:11:32;11.29;70.03
73568;SHT30;61847;54.994;73.310;2022-08-19T02:14:00;11.24;69.96
73568;SHT30;61847;54.994;73.310;2022-08-19T02:16:28;11.24;69.95
73568;SHT30;61847;54.994;73.310;2022-08-19T02:18:54;11.22;70.27
73568;SHT30;61847;54.994;73.310;2022-08-19T02:21:25;11.24;70.12
73568;SHT30;61847;54.994;73.310;2022-08-19T02:23:52;11.20;70.24
73568;SHT30;61847;54.994;73.310;2022-08-19T02:26:18;11.22;70.53
73568;SHT30;61847;54.994;73.310;2022-08-19T02:28:45;11.29;70.14
73568;SHT30;61847;54.994;73.310;2022-08-19T02:31:13;11.32;69.98
73568;SHT30;61847;54.994;73.310;2022-08-19T02:33:53;11.37;69.89
73568;SHT30;61847;54.994;73.310;2022-08-19T02:36:22;11.43;69.53
73568;SHT30;61847;54.994;73.310;2022-08-19T02:38:48;11.41;69.67
73568;SHT30;61847;54.994;73.310;2022-08-19T02:41:21;11.41;69.38
73568;SHT30;61847;54.994;73.310;2022-08-19T02:43:48;11.44;69.23
73568;SHT30;61847;54.994;73.310;2022-08-19T02:46:23;11.47;69.02
73568;SHT30;61847;54.994;73.310;2022-08-19T02:48:51;11.44;68.91
73568;SHT30;61847;54.994;73.310;2022-08-19T02:51:27;11.47;68.68
73568;SHT30;61847;54.994;73.310;2022-08-19T02:53:54;11.54;68.71
73568;SHT30;61847;54.994;73.310;2022-08-19T02:56:21;11.53;68.69
73568;SHT30;61847;54.994;73.310;2022-08-19T02:58:47;11.54;68.39
73568;SHT30;61847;54.994;73.310;2022-08-19T03:01:28;11.57;68.01
73568;SHT30;61847;54.994;73.310;2022-08-19T03:03:58;11.59;68.10
73568;SHT30;61847;54.994;73.310;2022-08-19T03:06:29;11.54;67.99
73568;SHT30;61847;54.994;73.310;2022-08-19T03:08:55;11.59;68.02
73568;SHT30;61847;54.994;73.310;2022-08-19T03:11:25;11.64;67.86
73568;SHT30;61847;54.994;73.310;2022-08-19T03:13:57;11.71;67.61
73568;SHT30;61847;54.994;73.310;2022-08-19T03:16:26;11.75;67.33
73568;SHT30;61847;54.994;73.310;2022-08-19T03:18:52;11.80;67.10
73568;SHT30;61847;54.994;73.310;2022-08-19T03:21:24;11.84;66.93
73568;SHT30;61847;54.994;73.310;2022-08-19T03:23:54;11.81;67.09
73568;SHT30;61847;54.994;73.310;2022-08-19T03:26:20;11.87;67.35
73568;SHT30;61847;54.994;73.310;2022-08-19T03:28:47;11.85;67.34
73568;SHT30;61847;54.994;73.310;2022-08-19T03:31:18;11.92;68.29
73568;SHT30;61847;54.994;73.310;2022-08-19T03:33:44;11.97;68.56
73568;SHT30;61847;54.994;73.310;2022-08-19T03:36:21;11.95;67.87
73568;SHT30;61847;54.994;73.310;2022-08-19T03:38:51;11.97;67.10
73568;SHT30;61847;54.994;73.310;2022-08-19T03:41:21;12.02;67.99
73568;SHT30;61847;54.994;73.310;2022-08-19T03:43:48;12.04;67.93
73568;SHT30;61847;54.994;73.310;2022-08-19T03:46:19;12.06;68.26
73568;SHT30;61847;54.994;73.310;2022-08-19T03:48:50;12.06;68.35
73568;SHT30;61847;54.994;73.310;2022-08-19T03:51:26;12.06;68.51
73568;SHT30;61847;54.994;73.310;2022-08-19T03:53:54;12.06;68.41
73568;SHT30;61847;54.994;73.310;2022-08-19T03:56:21;12.12;68.02
73568;SHT30;61847;54.994;73.310;2022-08-19T03:58:47;12.12;68.04
73568;SHT30;61847;54.994;73.310;2022-08-19T04:01:18;12.15;67.57
73568;SHT30;61847;54.994;73.310;2022-08-19T04:03:45;12.09;67.55
73568;SHT30;61847;54.994;73.310;2022-08-19T04:06:13;12.11;66.86
73568;SHT30;61847;54.994;73.310;2022-08-19T04:08:41;12.16;66.62
73568;SHT30;61847;54.994;73.310;2022-08-19T04:11:12;12.19;66.26
73568;SHT30;61847;54.994;73.310;2022-08-19T04:13:39;12.26;66.21
73568;SHT30;61847;54.994;73.310;2022-08-19T04:16:06;12.37;66.00
73568;SHT30;61847;54.994;73.310;2022-08-19T04:18:33;12.45;66.21
73568;SHT30;61847;54.994;73.310;2022-08-19T04:20:59;12.53;66.66
73568;SHT30;61847;54.994;73.310;2022-08-19T04:23:26;12.63;66.76
73568;SHT30;61847;54.994;73.310;2022-08-19T04:25:54;12.64;66.50
73568;SHT30;61847;54.994;73.310;2022-08-19T04:28:20;12.67;66.56
73568;SHT30;61847;54.994;73.310;2022-08-19T04:30:49;12.73;66.40
73568;SHT30;61847;54.994;73.310;2022-08-19T04:33:19;12.79;66.30
73568;SHT30;61847;54.994;73.310;2022-08-19T04:35:47;12.84;66.21
73568;SHT30;61847;54.994;73.310;2022-08-19T04:38:21;12.87;66.05
73568;SHT30;61847;54.994;73.310;2022-08-19T04:40:51;12.80;65.82
73568;SHT30;61847;54.994;73.310;2022-08-19T04:43:38;12.81;65.30
73568;SHT30;61847;54.994;73.310;2022-08-19T04:46:12;12.80;65.40
73568;SHT30;61847;54.994;73.310;2022-08-19T04:48:39;12.81;65.60
73568;SHT30;61847;54.994;73.310;2022-08-19T04:51:08;12.81;65.20
73568;SHT30;61847;54.994;73.310;2022-08-19T04:53:36;12.84;65.32
73568;SHT30;61847;54.994;73.310;2022-08-19T04:56:11;12.94;65.35
73568;SHT30;61847;54.994;73.310;2022-08-19T04:58:41;13.08;64.87
73568;SHT30;61847;54.994;73.310;2022-08-19T05:01:19;13.22;64.49
73568;SHT30;61847;54.994;73.310;2022-08-19T05:03:46;13.39;63.95
73568;SHT30;61847;54.994;73.310;2022-08-19T05:06:14;13.52;63.51
73568;SHT30;61847;54.994;73.310;2022-08-19T05:08:42;13.59;63.21
73568;SHT30;61847;54.994;73.310;2022-08-19T05:11:18;13.62;63.03
73568;SHT30;61847;54.994;73.310;2022-08-19T05:13:46;13.66;62.79
73568;SHT30;61847;54.994;73.310;2022-08-19T05:16:15;13.66;62.97
73568;SHT30;61847;54.994;73.310;2022-08-19T05:18:41;13.77;61.25
73568;SHT30;61847;54.994;73.310;2022-08-19T05:21:27;13.80;61.69
73568;SHT30;61847;54.994;73.310;2022-08-19T05:24:13;13.84;61.46
73568;SHT30;61847;54.994;73.310;2022-08-19T05:26:41;13.94;61.34
73568;SHT30;61847;54.994;73.310;2022-08-19T05:29:08;14.06;60.85
73568;SHT30;61847;54.994;73.310;2022-08-19T05:31:35;14.22;60.72
73568;SHT30;61847;54.994;73.310;2022-08-19T05:34:12;14.35;60.50
73568;SHT30;61847;54.994;73.310;2022-08-19T05:36:42;14.34;60.25
73568;SHT30;61847;54.994;73.310;2022-08-19T05:39:13;14.35;60.10
73568;SHT30;61847;54.994;73.310;2022-08-19T05:42:02;14.51;59.59
73568;SHT30;61847;54.994;73.310;2022-08-19T05:44:31;14.52;59.37
73568;SHT30;61847;54.994;73.310;2022-08-19T05:47:03;14.56;59.11
73568;SHT30;61847;54.994;73.310;2022-08-19T05:49:31;14.56;58.96
73568;SHT30;61847;54.994;73.310;2022-08-19T05:51:58;14.62;59.20
73568;SHT30;61847;54.994;73.310;2022-08-19T05:54:26;14.58;58.59
73568;SHT30;61847;54.994;73.310;2022-08-19T05:56:53;14.52;58.68
73568;SHT30;61847;54.994;73.310;2022-08-19T05:59:20;14.55;58.90
73568;SHT30;61847;54.994;73.310;2022-08-19T06:01:49;14.59;59.11
73568;SHT30;61847;54.994;73.310;2022-08-19T06:04:19;14.71;59.10
73568;SHT30;61847;54.994;73.310;2022-08-19T06:06:46;14.71;59.03
73568;SHT30;61847;54.994;73.310;2022-08-19T06:09:13;14.86;58.89
73568;SHT30;61847;54.994;73.310;2022-08-19T06:11:48;14.99;59.04
73568;SHT30;61847;54.994;73.310;2022-08-19T06:14:19;15.04;58.35
73568;SHT30;61847;54.994;73.310;2022-08-19T06:16:47;14.96;57.99
73568;SHT30;61847;54.994;73.310;2022-08-19T06:19:18;15.03;58.50
73568;SHT30;61847;54.994;73.310;2022-08-19T06:21:54;15.13;58.52
73568;SHT30;61847;54.994;73.310;2022-08-19T06:24:22;15.14;58.46
73568;SHT30;61847;54.994;73.310;2022-08-19T06:27:00;15.16;58.42
73568;SHT30;61847;54.994;73.310;2022-08-19T06:29:27;15.19;58.52
73568;SHT30;61847;54.994;73.310;2022-08-19T06:31:55;15.20;58.36
73568;SHT30;61847;54.994;73.310;2022-08-19T06:34:23;15.21;58.03
73568;SHT30;61847;54.994;73.310;2022-08-19T06:36:59;15.34;58.02
73568;SHT30;61847;54.994;73.310;2022-08-19T06:39:31;15.31;57.22
73568;SHT30;61847;54.994;73.310;2022-08-19T06:42:00;15.35;57.64
73568;SHT30;61847;54.994;73.310;2022-08-19T06:44:31;15.31;57.69
73568;SHT30;61847;54.994;73.310;2022-08-19T06:47:07;15.34;57.68
73568;SHT30;61847;54.994;73.310;2022-08-19T06:49:35;15.38;57.72
73568;SHT30;61847;54.994;73.310;2022-08-19T06:52:02;15.26;58.23
73568;SHT30;61847;54.994;73.310;2022-08-19T06:54:28;15.13;58.86
73568;SHT30;61847;54.994;73.310;2022-08-19T06:56:57;15.04;59.53
73568;SHT30;61847;54.994;73.310;2022-08-19T06:59:24;14.87;60.07
73568;SHT30;61847;54.994;73.310;2022-08-19T07:01:55;14.84;60.18
73568;SHT30;61847;54.994;73.310;2022-08-19T07:04:25;14.73;60.45
73568;SHT30;61847;54.994;73.310;2022-08-19T07:07:04;14.65;60.70
73568;SHT30;61847;54.994;73.310;2022-08-19T07:09:34;14.63;60.63
73568;SHT30;61847;54.994;73.310;2022-08-19T07:12:04;14.61;60.65
73568;SHT30;61847;54.994;73.310;2022-08-19T07:14:33;14.49;61.10
73568;SHT30;61847;54.994;73.310;2022-08-19T07:17:13;14.35;61.89
73568;SHT30;61847;54.994;73.310;2022-08-19T07:19:40;14.42;61.76
73568;SHT30;61847;54.994;73.310;2022-08-19T07:22:07;14.42;61.98
73568;SHT30;61847;54.994;73.310;2022-08-19T07:24:34;14.39;62.09
73568;SHT30;61847;54.994;73.310;2022-08-19T07:27:03;14.29;62.30
73568;SHT30;61847;54.994;73.310;2022-08-19T07:29:32;14.27;62.49
73568;SHT30;61847;54.994;73.310;2022-08-19T07:32:00;14.24;63.12
73568;SHT30;61847;54.994;73.310;2022-08-19T07:34:29;14.27;63.21
73568;SHT30;61847;54.994;73.310;2022-08-19T07:36:56;14.28;62.89
73568;SHT30;61847;54.994;73.310;2022-08-19T07:39:29;14.32;62.99
73568;SHT30;61847;54.994;73.310;2022-08-19T07:41:56;14.35;63.04
73568;SHT30;61847;54.994;73.310;2022-08-19T07:44:23;14.31;63.38
73568;SHT30;61847;54.994;73.310;2022-08-19T07:46:52;14.29;63.31
73568;SHT30;61847;54.994;73.310;2022-08-19T07:49:22;14.28;62.77
73568;SHT30;61847;54.994;73.310;2022-08-19T07:51:57;14.32;62.87
73568;SHT30;61847;54.994;73.310;2022-08-19T07:54:25;14.36;62.22
73568;SHT30;61847;54.994;73.310;2022-08-19T07:56:53;14.44;60.81
73568;SHT30;61847;54.994;73.310;2022-08-19T07:59:20;14.48;60.33
73568;SHT30;61847;54.994;73.310;2022-08-19T08:01:48;14.58;61.01
73568;SHT30;61847;54.994;73.310;2022-08-19T08:04:17;14.59;62.19
73568;SHT30;61847;54.994;73.310;2022-08-19T08:07:02;14.65;62.18
73568;SHT30;61847;54.994;73.310;2022-08-19T08:09:47;14.75;61.97
73568;SHT30;61847;54.994;73.310;2022-08-19T08:12:17;14.75;62.27
73568;SHT30;61847;54.994;73.310;2022-08-19T08:14:48;14.75;62.36
73568;SHT30;61847;54.994;73.310;2022-08-19T08:17:17;14.75;62.57
73568;SHT30;61847;54.994;73.310;2022-08-19T08:19:45;14.75;62.74
73568;SHT30;61847;54.994;73.310;2022-08-19T08:22:14;14.75;62.78
73568;SHT30;61847;54.994;73.310;2022-08-19T08:25:14;14.71;63.09
73568;SHT30;61847;54.994;73.310;2022-08-19T08:27:45;14.77;62.74
73568;SHT30;61847;54.994;73.310;2022-08-19T08:30:19;14.79;62.98
73568;SHT30;61847;54.994;73.310;2022-08-19T08:32:46;14.84;62.88
73568;SHT30;61847;54.994;73.310;2022-08-19T08:35:20;14.76;62.75
73568;SHT30;61847;54.994;73.310;2022-08-19T08:37:49;14.82;62.94
73568;SHT30;61847;54.994;73.310;2022-08-19T08:46:06;14.83;63.02
73568;SHT30;61847;54.994;73.310;2022-08-19T08:51:27;14.86;63.38
73568;SHT30;61847;54.994;73.310;2022-08-19T08:53:55;14.86;63.59
73568;SHT30;61847;54.994;73.310;2022-08-19T08:56:24;14.94;63.59
73568;SHT30;61847;54.994;73.310;2022-08-19T08:59:12;15.00;63.55
73568;SHT30;61847;54.994;73.310;2022-08-19T09:01:52;15.02;63.66
73568;SHT30;61847;54.994;73.310;2022-08-19T09:04:23;14.97;63.75
73568;SHT30;61847;54.994;73.310;2022-08-19T09:10:07;15.00;63.91
73568;SHT30;61847;54.994;73.310;2022-08-19T09:12:53;15.03;63.92
73568;SHT30;61847;54.994;73.310;2022-08-19T09:15:29;14.96;64.21
73568;SHT30;61847;54.994;73.310;2022-08-19T09:18:04;14.97;64.32
73568;SHT30;61847;54.994;73.310;2022-08-19T09:20:32;14.96;64.76
73568;SHT30;61847;54.994;73.310;2022-08-19T09:22:58;14.90;65.35
73568;SHT30;61847;54.994;73.310;2022-08-19T09:25:24;14.84;65.77
73568;SHT30;61847;54.994;73.310;2022-08-19T09:27:52;14.83;65.94
73568;SHT30;61847;54.994;73.310;2022-08-19T09:30:22;14.80;66.22
73568;SHT30;61847;54.994;73.310;2022-08-19T09:32:50;14.82;66.18
73568;SHT30;61847;54.994;73.310;2022-08-19T09:35:22;14.82;66.40
73568;SHT30;61847;54.994;73.310;2022-08-19T09:37:50;14.84;66.57
73568;SHT30;61847;54.994;73.310;2022-08-19T09:40:17;14.82;66.38
73568;SHT30;61847;54.994;73.310;2022-08-19T09:42:44;14.77;66.68
73568;SHT30;61847;54.994;73.310;2022-08-19T09:45:17;14.72;66.94
73568;SHT30;61847;54.994;73.310;2022-08-19T09:47:47;14.73;67.02
73568;SHT30;61847;54.994;73.310;2022-08-19T09:50:17;14.65;67.35
73568;SHT30;61847;54.994;73.310;2022-08-19T09:52:45;14.69;67.34
73568;SHT30;61847;54.994;73.310;2022-08-19T09:55:11;14.71;67.58
73568;SHT30;61847;54.994;73.310;2022-08-19T09:57:38;14.63;67.93
73568;SHT30;61847;54.994;73.310;2022-08-19T10:00:07;14.65;67.99
73568;SHT30;61847;54.994;73.310;2022-08-19T10:02:34;14.61;68.41
73568;SHT30;61847;54.994;73.310;2022-08-19T10:05:00;14.56;68.78
73568;SHT30;61847;54.994;73.310;2022-08-19T10:07:45;14.55;69.51
73568;SHT30;61847;54.994;73.310;2022-08-19T10:10:13;14.44;70.66
73568;SHT30;61847;54.994;73.310;2022-08-19T10:12:39;14.42;71.89
73568;SHT30;61847;54.994;73.310;2022-08-19T10:15:06;14.28;73.55
73568;SHT30;61847;54.994;73.310;2022-08-19T10:17:33;14.17;74.69
73568;SHT30;61847;54.994;73.310;2022-08-19T10:20:01;14.06;75.71
73568;SHT30;61847;54.994;73.310;2022-08-19T10:22:32;13.91;76.28
73568;SHT30;61847;54.994;73.310;2022-08-19T10:25:01;13.87;77.04
73568;SHT30;61847;54.994;73.310;2022-08-19T10:27:28;13.74;77.65
73568;SHT30;61847;54.994;73.310;2022-08-19T10:29:57;13.67;78.12
73568;SHT30;61847;54.994;73.310;2022-08-19T10:32:23;13.62;78.57
73568;SHT30;61847;54.994;73.310;2022-08-19T10:34:51;13.59;78.67
73568;SHT30;61847;54.994;73.310;2022-08-19T10:37:18;13.55;79.12
73568;SHT30;61847;54.994;73.310;2022-08-19T10:39:47;13.56;79.83
73568;SHT30;61847;54.994;73.310;2022-08-19T10:42:22;13.53;80.24
73568;SHT30;61847;54.994;73.310;2022-08-19T10:44:48;13.42;80.12
73568;SHT30;61847;54.994;73.310;2022-08-19T10:47:14;13.38;80.57
73568;SHT30;61847;54.994;73.310;2022-08-19T10:49:52;13.39;80.68
73568;SHT30;61847;54.994;73.310;2022-08-19T10:52:36;13.38;81.26
73568;SHT30;61847;54.994;73.310;2022-08-19T10:55:13;13.41;81.29
73568;SHT30;61847;54.994;73.310;2022-08-19T10:58:01;13.39;81.06
73568;SHT30;61847;54.994;73.310;2022-08-19T11:00:27;13.45;81.34
73568;SHT30;61847;54.994;73.310;2022-08-19T11:02:54;13.45;81.20
73568;SHT30;61847;54.994;73.310;2022-08-19T11:05:20;13.55;81.27
73568;SHT30;61847;54.994;73.310;2022-08-19T11:07:47;13.49;81.17
73568;SHT30;61847;54.994;73.310;2022-08-19T11:10:16;13.52;81.45
73568;SHT30;61847;54.994;73.310;2022-08-19T11:12:44;13.58;81.40
73568;SHT30;61847;54.994;73.310;2022-08-19T11:15:12;13.62;81.14
73568;SHT30;61847;54.994;73.310;2022-08-19T11:17:43;13.63;81.12
73568;SHT30;61847;54.994;73.310;2022-08-19T11:20:11;13.71;81.03
73568;SHT30;61847;54.994;73.310;2022-08-19T11:22:38;13.79;80.90
73568;SHT30;61847;54.994;73.310;2022-08-19T11:25:06;13.81;81.07
73568;SHT30;61847;54.994;73.310;2022-08-19T11:27:33;13.81;80.84
73568;SHT30;61847;54.994;73.310;2022-08-19T11:29:59;13.86;80.22
73568;SHT30;61847;54.994;73.310;2022-08-19T11:32:26;13.89;80.08
73568;SHT30;61847;54.994;73.310;2022-08-19T11:34:53;13.84;79.72
73568;SHT30;61847;54.994;73.310;2022-08-19T11:37:20;13.89;79.97
73568;SHT30;61847;54.994;73.310;2022-08-19T11:39:46;13.79;79.18
73568;SHT30;61847;54.994;73.310;2022-08-19T11:42:13;13.86;79.31
73568;SHT30;61847;54.994;73.310;2022-08-19T11:44:57;13.84;78.71
73568;SHT30;61847;54.994;73.310;2022-08-19T11:47:23;13.86;78.86
73568;SHT30;61847;54.994;73.310;2022-08-19T11:49:49;13.87;79.10
73568;SHT30;61847;54.994;73.310;2022-08-19T11:52:17;13.91;78.72
73568;SHT30;61847;54.994;73.310;2022-08-19T11:54:43;13.83;78.88
73568;SHT30;61847;54.994;73.310;2022-08-19T11:57:09;13.83;79.29
73568;SHT30;61847;54.994;73.310;2022-08-19T11:59:35;13.81;79.23
73568;SHT30;61847;54.994;73.310;2022-08-19T12:02:01;13.80;79.71
73568;SHT30;61847;54.994;73.310;2022-08-19T12:04:28;13.81;79.94
73568;SHT30;61847;54.994;73.310;2022-08-19T12:06:54;13.74;80.65
73568;SHT30;61847;54.994;73.310;2022-08-19T12:09:20;13.74;80.70
73568;SHT30;61847;54.994;73.310;2022-08-19T12:11:48;13.67;81.25
73568;SHT30;61847;54.994;73.310;2022-08-19T12:14:16;13.60;82.02
73568;SHT30;61847;54.994;73.310;2022-08-19T12:16:45;13.53;81.97
73568;SHT30;61847;54.994;73.310;2022-08-19T12:19:12;13.52;82.72
73568;SHT30;61847;54.994;73.310;2022-08-19T12:21:39;13.49;82.84
73568;SHT30;61847;54.994;73.310;2022-08-19T12:24:06;13.43;82.28
73568;SHT30;61847;54.994;73.310;2022-08-19T12:26:33;13.41;83.09
73568;SHT30;61847;54.994;73.310;2022-08-19T12:28:59;13.45;82.52
73568;SHT30;61847;54.994;73.310;2022-08-19T12:31:29;13.50;83.06
73568;SHT30;61847;54.994;73.310;2022-08-19T12:34:01;13.53;82.42
73568;SHT30;61847;54.994;73.310;2022-08-19T12:36:31;13.58;81.95
73568;SHT30;61847;54.994;73.310;2022-08-19T12:38:58;13.66;81.89
73568;SHT30;61847;54.994;73.310;2022-08-19T12:41:28;13.70;80.82
73568;SHT30;61847;54.994;73.310;2022-08-19T12:43:54;13.66;81.70
73568;SHT30;61847;54.994;73.310;2022-08-19T12:46:20;13.67;82.11
73568;SHT30;61847;54.994;73.310;2022-08-19T12:48:46;13.67;82.78
73568;SHT30;61847;54.994;73.310;2022-08-19T12:51:20;13.71;82.78
73568;SHT30;61847;54.994;73.310;2022-08-19T12:53:47;13.76;82.89
73568;SHT30;61847;54.994;73.310;2022-08-19T12:56:14;13.70;83.05
73568;SHT30;61847;54.994;73.310;2022-08-19T12:58:41;13.73;83.62
73568;SHT30;61847;54.994;73.310;2022-08-19T13:01:14;13.77;83.70
73568;SHT30;61847;54.994;73.310;2022-08-19T13:03:42;13.74;84.23
73568;SHT30;61847;54.994;73.310;2022-08-19T13:06:09;13.74;84.62
73568;SHT30;61847;54.994;73.310;2022-08-19T13:08:39;13.73;84.46
73568;SHT30;61847;54.994;73.310;2022-08-19T13:11:13;13.65;85.37
73568;SHT30;61847;54.994;73.310;2022-08-19T13:13:45;13.55;86.55
73568;SHT30;61847;54.994;73.310;2022-08-19T13:16:12;13.32;88.94
73568;SHT30;61847;54.994;73.310;2022-08-19T13:18:45;13.14;90.73
73568;SHT30;61847;54.994;73.310;2022-08-19T13:21:19;12.87;89.45
73568;SHT30;61847;54.994;73.310;2022-08-19T13:23:46;12.90;88.49
73568;SHT30;61847;54.994;73.310;2022-08-19T13:26:12;12.74;87.75
73568;SHT30;61847;54.994;73.310;2022-08-19T13:28:40;12.63;88.14
73568;SHT30;61847;54.994;73.310;2022-08-19T13:31:27;12.49;88.08
73568;SHT30;61847;54.994;73.310;2022-08-19T13:34:16;12.57;88.77
73568;SHT30;61847;54.994;73.310;2022-08-19T13:36:43;12.60;87.63
73568;SHT30;61847;54.994;73.310;2022-08-19T13:39:15;12.59;88.16
73568;SHT30;61847;54.994;73.310;2022-08-19T13:41:44;12.66;88.29
73568;SHT30;61847;54.994;73.310;2022-08-19T13:44:19;12.66;88.20
73568;SHT30;61847;54.994;73.310;2022-08-19T13:46:46;12.72;88.48
73568;SHT30;61847;54.994;73.310;2022-08-19T13:49:14;12.79;88.94
73568;SHT30;61847;54.994;73.310;2022-08-19T13:51:42;12.84;89.67
73568;SHT30;61847;54.994;73.310;2022-08-19T13:54:10;12.93;89.19
73568;SHT30;61847;54.994;73.310;2022-08-19T13:56:43;12.98;89.60
73568;SHT30;61847;54.994;73.310;2022-08-19T13:59:10;13.05;89.83
73568;SHT30;61847;54.994;73.310;2022-08-19T14:01:37;13.11;90.26
73568;SHT30;61847;54.994;73.310;2022-08-19T14:04:04;13.14;89.34
73568;SHT30;61847;54.994;73.310;2022-08-19T14:06:32;13.22;89.56
73568;SHT30;61847;54.994;73.310;2022-08-19T14:08:59;13.23;89.06
73568;SHT30;61847;54.994;73.310;2022-08-19T14:11:25;13.21;89.15
73568;SHT30;61847;54.994;73.310;2022-08-19T14:13:52;13.21;88.60
73568;SHT30;61847;54.994;73.310;2022-08-19T14:16:19;13.21;88.40
73568;SHT30;61847;54.994;73.310;2022-08-19T14:18:45;13.14;88.16
73568;SHT30;61847;54.994;73.310;2022-08-19T14:21:20;13.14;88.41
73568;SHT30;61847;54.994;73.310;2022-08-19T14:23:49;13.11;88.74
73568;SHT30;61847;54.994;73.310;2022-08-19T14:26:18;13.11;88.49
73568;SHT30;61847;54.994;73.310;2022-08-19T14:28:45;13.11;89.02
73568;SHT30;61847;54.994;73.310;2022-08-19T14:31:13;13.12;88.99
73568;SHT30;61847;54.994;73.310;2022-08-19T14:33:47;13.15;89.83
73568;SHT30;61847;54.994;73.310;2022-08-19T14:36:14;13.08;89.01
73568;SHT30;61847;54.994;73.310;2022-08-19T14:38:40;13.07;88.58
73568;SHT30;61847;54.994;73.310;2022-08-19T14:41:15;13.07;89.20
73568;SHT30;61847;54.994;73.310;2022-08-19T14:43:44;13.07;88.95
73568;SHT30;61847;54.994;73.310;2022-08-19T14:46:16;13.02;88.78
73568;SHT30;61847;54.994;73.310;2022-08-19T14:48:42;13.05;88.79
73568;SHT30;61847;54.994;73.310;2022-08-19T14:51:09;13.05;89.06
73568;SHT30;61847;54.994;73.310;2022-08-19T14:53:36;13.04;89.23
73568;SHT30;61847;54.994;73.310;2022-08-19T14:56:07;13.05;89.24
73568;SHT30;61847;54.994;73.310;2022-08-19T14:58:34;13.07;89.32
73568;SHT30;61847;54.994;73.310;2022-08-19T15:01:01;13.05;89.12
73568;SHT30;61847;54.994;73.310;2022-08-19T15:03:28;13.08;88.93
73568;SHT30;61847;54.994;73.310;2022-08-19T15:05:55;13.05;89.13
73568;SHT30;61847;54.994;73.310;2022-08-19T15:08:23;13.05;89.15
73568;SHT30;61847;54.994;73.310;2022-08-19T15:10:51;13.08;89.36
73568;SHT30;61847;54.994;73.310;2022-08-19T15:13:20;13.07;89.17
73568;SHT30;61847;54.994;73.310;2022-08-19T15:15:53;13.07;88.42
73568;SHT30;61847;54.994;73.310;2022-08-19T15:18:20;13.07;89.07
73568;SHT30;61847;54.994;73.310;2022-08-19T15:20:48;13.05;88.65
73568;SHT30;61847;54.994;73.310;2022-08-19T15:23:15;13.07;89.09
73568;SHT30;61847;54.994;73.310;2022-08-19T15:25:42;13.04;89.17
73568;SHT30;61847;54.994;73.310;2022-08-19T15:28:10;13.05;89.17
73568;SHT30;61847;54.994;73.310;2022-08-19T15:30:43;13.07;89.08
73568;SHT30;61847;54.994;73.310;2022-08-19T15:33:10;13.04;88.88
73568;SHT30;61847;54.994;73.310;2022-08-19T15:35:41;13.01;88.79
73568;SHT30;61847;54.994;73.310;2022-08-19T15:38:08;13.02;88.51
73568;SHT30;61847;54.994;73.310;2022-08-19T15:40:34;13.02;88.92
73568;SHT30;61847;54.994;73.310;2022-08-19T15:43:00;13.04;88.77
73568;SHT30;61847;54.994;73.310;2022-08-19T15:45:27;13.02;89.08